Vinton, Vinton Veterans Memorial Airpark (KVTI)

NameVinton Veterans Memorial Airpark
CityVinton
CountryUnited States
ICAOKVTI
IATA
Altitude257 m
CoordinatesGoogle Map
Live Air TrafficLiveATC.net
METARKVTI 202255Z AUTO 30005KT 10SM CLR M10/M14 A3066 RMK AO2 T11051136
2020-01-20 22:55:00 Wind: West-Northwest (300°) 2.57 m/s - Visibility: 16093.4 m - Temperature: -10 °C - Dew point: -14 °C - Humidity: 72.8% - Pressure: 1038.27 hPa

Sorry, no flights used the airport in this database.